sensor_id;sensor_type;location;lat;lon;timestamp;pressure;altitude;pressure_sealevel;temperature;humidity
22862;BME280;11598;50.652;6.172;2024-01-07T00:06:59;96242.06;;;-1.25;100.00
22862;BME280;11598;50.652;6.172;2024-01-07T00:16:59;96252.97;;;-1.20;100.00
22862;BME280;11598;50.652;6.172;2024-01-07T00:27:00;96258.16;;;-1.23;100.00
22862;BME280;11598;50.652;6.172;2024-01-07T00:37:00;96251.56;;;-1.30;100.00
22862;BME280;11598;50.652;6.172;2024-01-07T00:47:00;96264.44;;;-1.33;100.00
22862;BME280;11598;50.652;6.172;2024-01-07T00:57:01;96273.69;;;-1.31;100.00
22862;BME280;11598;50.652;6.172;2024-01-07T01:07:01;96266.47;;;-1.44;100.00
22862;BME280;11598;50.652;6.172;2024-01-07T01:17:02;96284.28;;;-1.44;100.00
22862;BME280;11598;50.652;6.172;2024-01-07T01:27:02;96287.81;;;-1.49;100.00
22862;BME280;11598;50.652;6.172;2024-01-07T01:37:03;96290.56;;;-1.55;100.00
22862;BME280;11598;50.652;6.172;2024-01-07T01:47:05;96303.19;;;-1.52;100.00
22862;BME280;11598;50.652;6.172;2024-01-07T01:57:09;96320.19;;;-1.52;100.00
22862;BME280;11598;50.652;6.172;2024-01-07T02:07:13;96318.34;;;-1.47;100.00
22862;BME280;11598;50.652;6.172;2024-01-07T02:17:15;96333.09;;;-1.58;100.00
22862;BME280;11598;50.652;6.172;2024-01-07T02:27:15;96336.53;;;-1.59;100.00
22862;BME280;11598;50.652;6.172;2024-01-07T02:37:15;96342.38;;;-1.56;100.00
22862;BME280;11598;50.652;6.172;2024-01-07T02:47:16;96344.91;;;-1.56;100.00
22862;BME280;11598;50.652;6.172;2024-01-07T02:57:16;96349.19;;;-1.56;100.00
22862;BME280;11598;50.652;6.172;2024-01-07T03:07:17;96359.38;;;-1.56;100.00
22862;BME280;11598;50.652;6.172;2024-01-07T03:17:17;96368.69;;;-1.55;100.00
22862;BME280;11598;50.652;6.172;2024-01-07T03:27:17;96364.47;;;-1.56;100.00
22862;BME280;11598;50.652;6.172;2024-01-07T03:37:18;96368.59;;;-1.52;100.00
22862;BME280;11598;50.652;6.172;2024-01-07T03:47:18;96368.75;;;-1.58;100.00
22862;BME280;11598;50.652;6.172;2024-01-07T03:57:19;96363.50;;;-1.52;100.00
22862;BME280;11598;50.652;6.172;2024-01-07T04:07:19;96373.56;;;-1.47;100.00
22862;BME280;11598;50.652;6.172;2024-01-07T04:17:19;96377.03;;;-1.50;100.00
22862;BME280;11598;50.652;6.172;2024-01-07T04:27:20;96388.88;;;-1.47;100.00
22862;BME280;11598;50.652;6.172;2024-01-07T04:37:20;96395.72;;;-1.50;100.00
22862;BME280;11598;50.652;6.172;2024-01-07T04:47:31;96393.84;;;-1.44;100.00
22862;BME280;11598;50.652;6.172;2024-01-07T04:57:31;96414.03;;;-1.37;100.00
22862;BME280;11598;50.652;6.172;2024-01-07T05:07:31;96414.22;;;-1.43;100.00
22862;BME280;11598;50.652;6.172;2024-01-07T05:17:32;96427.78;;;-1.42;100.00
22862;BME280;11598;50.652;6.172;2024-01-07T05:27:32;96429.75;;;-1.52;100.00
22862;BME280;11598;50.652;6.172;2024-01-07T05:37:32;96434.03;;;-1.53;100.00
22862;BME280;11598;50.652;6.172;2024-01-07T05:47:33;96453.75;;;-1.61;100.00
22862;BME280;11598;50.652;6.172;2024-01-07T05:57:33;96465.66;;;-1.61;100.00
22862;BME280;11598;50.652;6.172;2024-01-07T06:07:35;96472.63;;;-1.68;100.00
22862;BME280;11598;50.652;6.172;2024-01-07T06:17:35;96480.25;;;-1.68;100.00
22862;BME280;11598;50.652;6.172;2024-01-07T06:27:36;96495.47;;;-1.65;100.00
22862;BME280;11598;50.652;6.172;2024-01-07T06:37:38;96509.31;;;-1.75;100.00
22862;BME280;11598;50.652;6.172;2024-01-07T06:47:38;96500.19;;;-1.84;100.00
22862;BME280;11598;50.652;6.172;2024-01-07T06:57:38;96525.59;;;-1.81;100.00
22862;BME280;11598;50.652;6.172;2024-01-07T07:07:39;96541.78;;;-1.83;100.00
22862;BME280;11598;50.652;6.172;2024-01-07T07:17:40;96541.09;;;-1.90;100.00
22862;BME280;11598;50.652;6.172;2024-01-07T07:27:40;96553.72;;;-1.85;100.00
22862;BME280;11598;50.652;6.172;2024-01-07T07:37:40;96580.91;;;-1.87;100.00
22862;BME280;11598;50.652;6.172;2024-01-07T07:47:41;96592.16;;;-1.96;100.00
22862;BME280;11598;50.652;6.172;2024-01-07T07:57:44;96600.91;;;-2.09;100.00
22862;BME280;11598;50.652;6.172;2024-01-07T08:07:46;96630.63;;;-2.08;100.00
22862;BME280;11598;50.652;6.172;2024-01-07T08:17:46;96635.81;;;-2.13;100.00
22862;BME280;11598;50.652;6.172;2024-01-07T08:27:47;96651.16;;;-2.16;100.00
22862;BME280;11598;50.652;6.172;2024-01-07T08:37:47;96657.13;;;-2.19;100.00
22862;BME280;11598;50.652;6.172;2024-01-07T08:47:48;96674.91;;;-2.17;100.00
22862;BME280;11598;50.652;6.172;2024-01-07T08:57:48;96680.13;;;-2.23;100.00
22862;BME280;11598;50.652;6.172;2024-01-07T09:07:49;96680.25;;;-2.29;100.00
22862;BME280;11598;50.652;6.172;2024-01-07T09:17:49;96686.22;;;-2.30;100.00
22862;BME280;11598;50.652;6.172;2024-01-07T09:27:50;96704.97;;;-2.35;100.00
22862;BME280;11598;50.652;6.172;2024-01-07T09:37:50;96713.53;;;-2.40;100.00
22862;BME280;11598;50.652;6.172;2024-01-07T09:47:50;96712.63;;;-2.38;100.00
22862;BME280;11598;50.652;6.172;2024-01-07T09:57:51;96716.94;;;-2.41;100.00
22862;BME280;11598;50.652;6.172;2024-01-07T10:07:52;96724.56;;;-2.40;100.00
22862;BME280;11598;50.652;6.172;2024-01-07T10:18:02;96729.50;;;-2.32;100.00
22862;BME280;11598;50.652;6.172;2024-01-07T10:28:03;96743.06;;;-2.33;100.00
22862;BME280;11598;50.652;6.172;2024-01-07T10:38:04;96750.94;;;-2.44;100.00
22862;BME280;11598;50.652;6.172;2024-01-07T10:48:07;96745.91;;;-2.48;100.00
22862;BME280;11598;50.652;6.172;2024-01-07T10:58:09;96752.75;;;-2.52;100.00
22862;BME280;11598;50.652;6.172;2024-01-07T11:08:20;96753.78;;;-2.62;100.00
22862;BME280;11598;50.652;6.172;2024-01-07T11:18:26;96764.78;;;-2.60;100.00
22862;BME280;11598;50.652;6.172;2024-01-07T11:38:53;96757.22;;;-2.63;100.00
22862;BME280;11598;50.652;6.172;2024-01-07T11:48:55;96756.25;;;-2.56;100.00
22862;BME280;11598;50.652;6.172;2024-01-07T11:58:58;96766.66;;;-2.71;100.00
22862;BME280;11598;50.652;6.172;2024-01-07T12:08:59;96769.41;;;-2.82;100.00
22862;BME280;11598;50.652;6.172;2024-01-07T12:19:00;96783.88;;;-2.87;100.00
22862;BME280;11598;50.652;6.172;2024-01-07T12:29:00;96793.97;;;-2.83;100.00
22862;BME280;11598;50.652;6.172;2024-01-07T12:39:03;96793.28;;;-2.94;100.00
22862;BME280;11598;50.652;6.172;2024-01-07T12:49:04;96795.06;;;-2.98;100.00
22862;BME280;11598;50.652;6.172;2024-01-07T12:59:04;96806.13;;;-3.00;100.00
22862;BME280;11598;50.652;6.172;2024-01-07T13:09:05;96818.06;;;-3.05;100.00
22862;BME280;11598;50.652;6.172;2024-01-07T13:19:05;96823.16;;;-3.07;100.00
22862;BME280;11598;50.652;6.172;2024-01-07T13:29:06;96830.78;;;-3.08;100.00
22862;BME280;11598;50.652;6.172;2024-01-07T13:39:06;96828.31;;;-3.11;100.00
22862;BME280;11598;50.652;6.172;2024-01-07T13:49:07;96828.19;;;-3.04;100.00
22862;BME280;11598;50.652;6.172;2024-01-07T13:59:08;96844.31;;;-3.06;100.00
22862;BME280;11598;50.652;6.172;2024-01-07T14:09:09;96858.03;;;-3.18;100.00
22862;BME280;11598;50.652;6.172;2024-01-07T14:19:09;96876.78;;;-3.25;100.00
22862;BME280;11598;50.652;6.172;2024-01-07T14:29:10;96910.84;;;-3.42;100.00
22862;BME280;11598;50.652;6.172;2024-01-07T14:39:10;96897.50;;;-3.57;100.00
22862;BME280;11598;50.652;6.172;2024-01-07T14:49:11;96899.28;;;-3.64;100.00
22862;BME280;11598;50.652;6.172;2024-01-07T14:59:11;96915.34;;;-3.65;100.00
22862;BME280;11598;50.652;6.172;2024-01-07T15:09:12;96934.84;;;-3.67;100.00
22862;BME280;11598;50.652;6.172;2024-01-07T15:19:14;96943.47;;;-3.84;100.00
22862;BME280;11598;50.652;6.172;2024-01-07T15:29:15;96964.03;;;-4.10;100.00
22862;BME280;11598;50.652;6.172;2024-01-07T15:39:15;97001.34;;;-4.24;100.00
22862;BME280;11598;50.652;6.172;2024-01-07T15:49:15;97009.91;;;-4.37;100.00
22862;BME280;11598;50.652;6.172;2024-01-07T15:59:16;97015.03;;;-4.50;100.00
22862;BME280;11598;50.652;6.172;2024-01-07T16:09:17;97031.97;;;-4.56;100.00
22862;BME280;11598;50.652;6.172;2024-01-07T16:19:18;97031.22;;;-4.71;100.00
22862;BME280;11598;50.652;6.172;2024-01-07T16:29:18;97053.25;;;-4.85;100.00
22862;BME280;11598;50.652;6.172;2024-01-07T16:39:18;97055.84;;;-4.91;100.00
22862;BME280;11598;50.652;6.172;2024-01-07T16:49:19;97070.22;;;-4.99;100.00
22862;BME280;11598;50.652;6.172;2024-01-07T16:59:19;97089.66;;;-5.07;100.00
22862;BME280;11598;50.652;6.172;2024-01-07T17:09:21;97087.97;;;-5.13;100.00
22862;BME280;11598;50.652;6.172;2024-01-07T17:19:23;97102.34;;;-5.12;100.00
22862;BME280;11598;50.652;6.172;2024-01-07T17:29:24;97121.78;;;-5.23;100.00
22862;BME280;11598;50.652;6.172;2024-01-07T17:39:25;97120.94;;;-5.28;100.00
22862;BME280;11598;50.652;6.172;2024-01-07T17:49:25;97133.59;;;-5.32;100.00
22862;BME280;11598;50.652;6.172;2024-01-07T17:59:26;97136.13;;;-5.32;100.00
22862;BME280;11598;50.652;6.172;2024-01-07T18:09:27;97137.84;;;-5.31;100.00
22862;BME280;11598;50.652;6.172;2024-01-07T18:19:28;97152.19;;;-5.28;100.00
22862;BME280;11598;50.652;6.172;2024-01-07T18:29:28;97151.31;;;-5.27;100.00
22862;BME280;11598;50.652;6.172;2024-01-07T18:39:29;97161.47;;;-5.21;100.00
22862;BME280;11598;50.652;6.172;2024-01-07T18:49:29;97164.81;;;-5.16;100.00
22862;BME280;11598;50.652;6.172;2024-01-07T18:59:30;97173.25;;;-5.15;100.00
22862;BME280;11598;50.652;6.172;2024-01-07T19:09:31;97179.19;;;-5.18;100.00
22862;BME280;11598;50.652;6.172;2024-01-07T19:19:31;97180.03;;;-5.25;100.00
22862;BME280;11598;50.652;6.172;2024-01-07T19:29:31;97187.63;;;-5.23;100.00
22862;BME280;11598;50.652;6.172;2024-01-07T19:39:32;97193.56;;;-5.29;100.00
22862;BME280;11598;50.652;6.172;2024-01-07T19:49:35;97196.94;;;-5.30;100.00
22862;BME280;11598;50.652;6.172;2024-01-07T19:59:36;97199.47;;;-5.28;100.00
22862;BME280;11598;50.652;6.172;2024-01-07T20:09:36;97212.97;;;-5.25;100.00
22862;BME280;11598;50.652;6.172;2024-01-07T20:19:37;97203.69;;;-5.24;100.00
22862;BME280;11598;50.652;6.172;2024-01-07T20:29:38;97212.97;;;-5.23;100.00
22862;BME280;11598;50.652;6.172;2024-01-07T20:39:40;97216.34;;;-5.21;100.00
22862;BME280;11598;50.652;6.172;2024-01-07T20:49:40;97223.13;;;-5.17;100.00
22862;BME280;11598;50.652;6.172;2024-01-07T20:59:42;97224.78;;;-5.18;100.00
22862;BME280;11598;50.652;6.172;2024-01-07T21:09:43;97229.84;;;-5.13;100.00
22862;BME280;11598;50.652;6.172;2024-01-07T21:19:44;97229.84;;;-5.12;100.00
22862;BME280;11598;50.652;6.172;2024-01-07T21:29:47;97234.06;;;-5.15;100.00
22862;BME280;11598;50.652;6.172;2024-01-07T21:39:48;97237.44;;;-5.18;100.00
22862;BME280;11598;50.652;6.172;2024-01-07T21:49:49;97244.22;;;-5.18;100.00
22862;BME280;11598;50.652;6.172;2024-01-07T21:59:50;97239.97;;;-5.18;100.00
22862;BME280;11598;50.652;6.172;2024-01-07T22:09:50;97245.88;;;-5.25;100.00
22862;BME280;11598;50.652;6.172;2024-01-07T22:19:51;97251.81;;;-5.34;100.00
22862;BME280;11598;50.652;6.172;2024-01-07T22:29:51;97253.50;;;-5.40;100.00
22862;BME280;11598;50.652;6.172;2024-01-07T22:39:51;97263.59;;;-5.53;100.00
22862;BME280;11598;50.652;6.172;2024-01-07T22:49:52;97255.16;;;-5.59;100.00
22862;BME280;11598;50.652;6.172;2024-01-07T22:59:52;97274.50;;;-5.72;100.00
22862;BME280;11598;50.652;6.172;2024-01-07T23:09:52;97268.56;;;-5.79;100.00
22862;BME280;11598;50.652;6.172;2024-01-07T23:19:53;97272.81;;;-5.82;100.00
22862;BME280;11598;50.652;6.172;2024-01-07T23:29:53;97283.72;;;-5.88;100.00
22862;BME280;11598;50.652;6.172;2024-01-07T23:39:54;97280.34;;;-5.91;100.00
22862;BME280;11598;50.652;6.172;2024-01-07T23:49:54;97294.69;;;-5.90;100.00
22862;BME280;11598;50.652;6.172;2024-01-07T23:59:55;97297.22;;;-5.90;100.00
